createdAt,value
2022-10-12T00:01:21.952Z,6.54
2022-10-12T00:04:39.550Z,6.52
2022-10-12T00:07:56.500Z,6.48
2022-10-12T00:11:14.511Z,6.46
2022-10-12T00:14:30.753Z,6.44
2022-10-12T00:17:48.019Z,6.41
2022-10-12T00:21:14.964Z,6.39
2022-10-12T00:24:31.319Z,6.40
2022-10-12T00:27:48.022Z,6.39
2022-10-12T00:31:04.664Z,6.41
2022-10-12T00:34:22.250Z,6.39
2022-10-12T00:37:39.968Z,6.40
2022-10-12T00:40:57.631Z,6.39
2022-10-12T00:44:46.895Z,6.39
2022-10-12T00:48:03.125Z,6.38
2022-10-12T00:51:20.374Z,6.36
2022-10-12T00:54:40.314Z,6.29
2022-10-12T00:57:59.632Z,6.21
2022-10-12T01:01:17.006Z,6.11
2022-10-12T01:04:34.278Z,6.04
2022-10-12T01:07:50.612Z,5.96
2022-10-12T01:11:07.462Z,5.89
2022-10-12T01:14:24.243Z,5.86
2022-10-12T01:17:50.497Z,5.78
2022-10-12T01:21:18.966Z,5.69
2022-10-12T01:24:57.438Z,5.63
2022-10-12T01:28:18.970Z,5.64
2022-10-12T01:31:41.542Z,5.63
2022-10-12T01:35:07.365Z,5.61
2022-10-12T01:38:33.695Z,5.57
2022-10-12T01:41:53.486Z,5.51
2022-10-12T01:45:19.241Z,5.56
2022-10-12T01:48:36.066Z,5.53
2022-10-12T01:52:25.034Z,5.51
2022-10-12T01:55:48.589Z,5.54
2022-10-12T01:59:10.975Z,5.59
2022-10-12T02:02:35.351Z,5.53
2022-10-12T02:05:56.216Z,5.44
2022-10-12T02:09:19.440Z,5.43
2022-10-12T02:12:39.143Z,5.38
2022-10-12T02:15:56.793Z,5.38
2022-10-12T02:19:18.135Z,5.34
2022-10-12T02:22:40.154Z,5.27
2022-10-12T02:25:57.558Z,5.19
2022-10-12T02:29:18.788Z,5.13
2022-10-12T02:32:41.397Z,5.12
2022-10-12T02:36:02.952Z,5.02
2022-10-12T02:39:23.584Z,4.94
2022-10-12T02:43:08.811Z,4.93
2022-10-12T02:46:05.592Z,4.89
2022-10-12T02:49:23.036Z,4.83
2022-10-12T02:52:40.854Z,4.83
2022-10-12T02:56:03.848Z,4.75
2022-10-12T02:59:20.823Z,4.65
2022-10-12T03:02:37.529Z,4.56
2022-10-12T03:05:54.009Z,4.55
2022-10-12T03:09:11.096Z,4.52
2022-10-12T03:12:27.448Z,4.48
2022-10-12T03:15:44.017Z,4.41
2022-10-12T03:19:00.321Z,4.38
2022-10-12T03:22:17.317Z,4.34
2022-10-12T03:25:33.945Z,4.32
2022-10-12T03:28:49.899Z,4.29
2022-10-12T03:32:06.149Z,4.29
2022-10-12T03:35:22.743Z,4.24
2022-10-12T03:38:38.825Z,4.20
2022-10-12T03:41:55.493Z,4.23
2022-10-12T03:45:13.324Z,4.19
2022-10-12T03:48:29.414Z,4.22
2022-10-12T03:51:45.592Z,4.18
2022-10-12T03:55:02.297Z,4.18
2022-10-12T03:58:19.725Z,4.15
2022-10-12T04:01:40.345Z,4.10
2022-10-12T04:05:09.765Z,4.02
2022-10-12T04:08:27.823Z,4.00
2022-10-12T04:11:46.827Z,3.96
2022-10-12T04:15:03.698Z,3.97
2022-10-12T04:18:20.714Z,3.93
2022-10-12T04:21:39.243Z,3.91
2022-10-12T04:24:58.371Z,3.94
2022-10-12T04:28:15.067Z,3.95
2022-10-12T04:31:38.746Z,3.91
2022-10-12T04:34:54.948Z,3.86
2022-10-12T04:38:11.463Z,3.75
2022-10-12T04:41:27.866Z,3.70
2022-10-12T04:44:45.008Z,3.74
2022-10-12T04:48:01.470Z,3.80
2022-10-12T04:51:17.539Z,3.81
2022-10-12T04:54:34.458Z,3.76
2022-10-12T04:57:50.839Z,3.76
2022-10-12T05:01:08.199Z,3.83
2022-10-12T05:04:24.488Z,3.83
2022-10-12T05:07:41.271Z,3.87
2022-10-12T05:10:59.957Z,3.91
2022-10-12T05:14:16.342Z,3.97
2022-10-12T05:17:32.781Z,4.01
2022-10-12T05:20:50.439Z,4.08
2022-10-12T05:24:06.955Z,4.15
2022-10-12T05:27:23.821Z,4.19
2022-10-12T05:30:40.637Z,4.26
2022-10-12T05:33:57.385Z,4.32
2022-10-12T05:37:14.822Z,4.36
2022-10-12T05:40:30.888Z,4.40
2022-10-12T05:43:46.885Z,4.39
2022-10-12T05:47:03.723Z,4.53
2022-10-12T05:50:24.510Z,4.51
2022-10-12T05:53:40.828Z,4.57
2022-10-12T05:56:58.014Z,4.56
2022-10-12T06:00:18.019Z,4.56
2022-10-12T06:03:35.125Z,4.53
2022-10-12T06:06:51.677Z,4.61
2022-10-12T06:10:09.787Z,4.70
2022-10-12T06:13:26.833Z,4.80
2022-10-12T06:16:43.010Z,4.89
2022-10-12T06:20:00.477Z,5.05
2022-10-12T06:23:17.946Z,5.10
2022-10-12T06:26:35.131Z,5.11
2022-10-12T06:29:52.543Z,5.11
2022-10-12T06:33:08.771Z,5.29
2022-10-12T06:36:25.528Z,5.34
2022-10-12T06:39:41.536Z,5.43
2022-10-12T06:43:00.576Z,5.55
2022-10-12T06:46:16.267Z,5.69
2022-10-12T06:49:32.269Z,5.90
2022-10-12T06:52:52.105Z,6.04
2022-10-12T06:56:15.128Z,6.14
2022-10-12T06:59:32.201Z,6.17
2022-10-12T07:02:49.374Z,6.25
2022-10-12T07:06:13.430Z,6.46
2022-10-12T07:09:31.606Z,6.57
2022-10-12T07:12:47.997Z,6.62
2022-10-12T07:16:05.356Z,6.69
2022-10-12T07:19:21.460Z,6.74
2022-10-12T07:22:38.196Z,6.77
2022-10-12T07:25:58.956Z,6.79
2022-10-12T07:29:15.426Z,6.88
2022-10-12T07:32:31.702Z,6.85
2022-10-12T07:36:10.731Z,6.88
2022-10-12T07:39:06.407Z,6.87
2022-10-12T07:42:23.112Z,6.96
2022-10-12T07:45:41.993Z,7.05
2022-10-12T07:48:58.742Z,7.10
2022-10-12T07:52:16.141Z,7.19
2022-10-12T07:55:33.026Z,7.35
2022-10-12T07:58:49.663Z,7.48
2022-10-12T08:02:06.479Z,7.56
2022-10-12T08:05:24.762Z,7.66
2022-10-12T08:08:43.155Z,7.79
2022-10-12T08:12:01.592Z,7.88
2022-10-12T08:15:19.853Z,8.01
2022-10-12T08:18:36.883Z,8.01
2022-10-12T08:21:54.775Z,8.20
2022-10-12T08:25:12.192Z,8.30
2022-10-12T08:28:29.286Z,8.37
2022-10-12T08:31:49.460Z,8.40
2022-10-12T08:35:05.566Z,8.45
2022-10-12T08:38:23.332Z,8.58
2022-10-12T08:42:01.392Z,8.67
2022-10-12T08:45:58.166Z,8.82
2022-10-12T08:49:20.111Z,8.95
2022-10-12T08:52:42.232Z,8.97
2022-10-12T08:55:59.974Z,9.10
2022-10-12T08:59:20.726Z,9.26
2022-10-12T09:02:55.838Z,9.50
2022-10-12T09:06:20.068Z,9.85
2022-10-12T09:09:51.663Z,9.97
2022-10-12T09:13:15.387Z,10.13
2022-10-12T09:16:37.434Z,10.15
2022-10-12T09:19:53.628Z,10.35
2022-10-12T09:23:15.411Z,10.50
2022-10-12T09:26:40.789Z,10.66
2022-10-12T09:30:01.383Z,10.95
2022-10-12T09:33:28.888Z,11.25
2022-10-12T09:36:50.861Z,11.52
2022-10-12T09:40:07.923Z,11.80
2022-10-12T09:43:24.679Z,12.00
2022-10-12T09:46:56.899Z,12.36
2022-10-12T09:50:15.552Z,12.57
2022-10-12T09:53:42.056Z,12.86
2022-10-12T09:57:00.060Z,13.04
2022-10-12T10:00:33.965Z,13.26
2022-10-12T10:03:52.830Z,13.31
2022-10-12T10:07:28.790Z,13.63
2022-10-12T10:10:53.697Z,13.86
2022-10-12T10:14:14.037Z,13.94
2022-10-12T10:17:37.280Z,14.24
2022-10-12T10:20:57.537Z,14.35
2022-10-12T10:24:20.565Z,14.46
2022-10-12T10:27:44.214Z,14.56
2022-10-12T10:31:14.468Z,14.67
2022-10-12T10:34:33.582Z,14.62
2022-10-12T10:37:54.764Z,14.63
2022-10-12T10:41:15.200Z,14.76
2022-10-12T10:48:02.324Z,14.81
2022-10-12T10:51:18.793Z,14.67
2022-10-12T10:54:41.894Z,14.77
2022-10-12T10:58:05.581Z,14.78
2022-10-12T11:01:30.408Z,14.85
2022-10-12T11:04:51.600Z,14.85
2022-10-12T11:08:11.389Z,14.85
2022-10-12T11:11:32.035Z,14.74
2022-10-12T11:14:54.260Z,14.71
2022-10-12T11:18:17.565Z,14.64
2022-10-12T11:21:41.287Z,14.48
2022-10-12T11:25:00.690Z,14.29
2022-10-12T11:28:20.850Z,14.17
2022-10-12T11:31:43.010Z,14.00
2022-10-12T11:35:04.354Z,13.88
2022-10-12T11:38:29.053Z,13.84
2022-10-12T11:42:20.488Z,13.83
2022-10-12T11:45:16.279Z,13.69
2022-10-12T11:48:36.313Z,13.66
2022-10-12T11:51:57.361Z,13.70
2022-10-12T11:55:48.969Z,13.67
2022-10-12T11:59:10.318Z,13.58
2022-10-12T12:02:31.542Z,13.53
2022-10-12T12:05:48.848Z,13.49
2022-10-12T12:09:15.371Z,13.46
2022-10-12T12:12:35.276Z,13.45
2022-10-12T12:16:07.164Z,13.39
2022-10-12T12:19:48.277Z,13.30
2022-10-12T12:23:04.508Z,13.30
2022-10-12T12:26:29.384Z,13.31
2022-10-12T12:29:45.943Z,13.30
2022-10-12T12:33:06.534Z,13.30
2022-10-12T12:36:33.755Z,13.22
2022-10-12T12:39:51.429Z,13.19
2022-10-12T12:43:58.689Z,13.19
2022-10-12T12:47:45.953Z,13.23
2022-10-12T12:51:09.127Z,13.18
2022-10-12T12:54:31.987Z,13.12
2022-10-12T12:58:08.314Z,13.08
2022-10-12T13:01:49.170Z,13.07
2022-10-12T13:06:05.323Z,13.05
2022-10-12T13:09:49.389Z,13.00
2022-10-12T13:13:25.737Z,12.95
2022-10-12T13:20:32.177Z,13.03
2022-10-12T13:23:49.582Z,13.03
2022-10-12T13:27:13.081Z,13.00
2022-10-12T13:30:38.870Z,12.99
2022-10-12T13:34:02.664Z,12.93
2022-10-12T13:37:24.494Z,12.90
2022-10-12T13:40:45.250Z,12.94
2022-10-12T13:44:06.228Z,12.93
2022-10-12T13:47:37.675Z,12.91
2022-10-12T13:51:03.701Z,12.88
2022-10-12T13:54:29.899Z,12.85
2022-10-12T13:58:07.255Z,12.88
2022-10-12T14:01:26.598Z,12.89
2022-10-12T14:04:44.093Z,12.88
2022-10-12T14:08:05.910Z,12.86
2022-10-12T14:11:22.968Z,12.82
2022-10-12T14:14:44.821Z,12.83
2022-10-12T14:18:01.692Z,12.82
2022-10-12T14:21:30.173Z,12.80
2022-10-12T14:24:47.306Z,12.74
2022-10-12T14:28:11.730Z,12.78
2022-10-12T14:31:46.331Z,12.79
2022-10-12T14:35:19.768Z,12.75
2022-10-12T14:38:50.238Z,12.72
2022-10-12T14:42:09.766Z,12.72
2022-10-12T14:45:34.434Z,12.68
2022-10-12T14:48:50.979Z,12.67
2022-10-12T14:52:09.253Z,12.66
2022-10-12T14:55:30.134Z,12.64
2022-10-12T14:58:46.741Z,12.62
2022-10-12T15:02:03.235Z,12.60
2022-10-12T15:05:26.100Z,12.58
2022-10-12T15:08:42.568Z,12.56
2022-10-12T15:11:59.290Z,12.54
2022-10-12T15:15:35.352Z,12.50
2022-10-12T15:18:51.788Z,12.48
2022-10-12T15:22:08.214Z,12.49
2022-10-12T15:25:31.392Z,12.46
2022-10-12T15:28:48.457Z,12.45
2022-10-12T15:32:06.329Z,12.39
2022-10-12T15:35:37.811Z,12.37
2022-10-12T15:38:54.653Z,12.34
2022-10-12T15:42:11.266Z,12.32
2022-10-12T15:45:31.446Z,12.27
2022-10-12T15:48:47.689Z,12.25
2022-10-12T15:52:05.069Z,12.22
2022-10-12T15:55:32.345Z,12.20
2022-10-12T15:58:50.445Z,12.17
2022-10-12T16:02:08.258Z,12.11
2022-10-12T16:05:36.718Z,12.07
2022-10-12T16:08:53.112Z,12.05
2022-10-12T16:12:10.669Z,12.02
2022-10-12T16:15:32.576Z,12.02
2022-10-12T16:18:49.618Z,11.91
2022-10-12T16:22:07.433Z,11.50
2022-10-12T16:25:28.282Z,11.23
2022-10-12T16:28:45.659Z,10.92
2022-10-12T16:32:02.805Z,10.68
2022-10-12T16:35:20.732Z,10.52
2022-10-12T16:38:37.328Z,10.37
2022-10-12T16:41:54.419Z,10.18
2022-10-12T16:45:12.974Z,10.00
2022-10-12T16:48:30.066Z,9.90
2022-10-12T16:51:49.199Z,9.74
2022-10-12T16:55:03.476Z,9.61
2022-10-12T16:58:20.637Z,9.49
2022-10-12T17:01:36.928Z,9.36
2022-10-12T17:04:55.242Z,9.29
2022-10-12T17:08:41.660Z,9.18
2022-10-12T17:12:00.638Z,9.09
2022-10-12T17:15:19.049Z,8.99
2022-10-12T17:18:35.161Z,8.91
2022-10-12T17:21:57.273Z,8.84
2022-10-12T17:25:16.004Z,8.82
2022-10-12T17:28:32.466Z,8.77
2022-10-12T17:31:49.435Z,8.72
2022-10-12T17:35:13.201Z,8.70
2022-10-12T17:38:29.761Z,8.65
2022-10-12T17:41:48.127Z,8.57
2022-10-12T17:45:04.302Z,8.51
2022-10-12T17:48:20.528Z,8.41
2022-10-12T17:51:39.351Z,8.34
2022-10-12T17:54:55.527Z,8.26
2022-10-12T17:58:12.106Z,8.22
2022-10-12T18:01:29.142Z,8.18
2022-10-12T18:04:47.073Z,8.13
2022-10-12T18:08:05.790Z,8.09
2022-10-12T18:11:26.716Z,8.05
2022-10-12T18:14:42.787Z,8.00
2022-10-12T18:17:59.258Z,7.96
2022-10-12T18:21:19.105Z,7.89
2022-10-12T18:24:36.124Z,7.85
2022-10-12T18:27:53.350Z,7.80
2022-10-12T18:31:12.187Z,7.73
2022-10-12T18:34:33.021Z,7.68
2022-10-12T18:37:48.443Z,7.64
2022-10-12T18:41:17.898Z,7.57
2022-10-12T18:44:34.171Z,7.51
2022-10-12T18:47:50.424Z,7.48
2022-10-12T18:51:14.000Z,7.39
2022-10-12T18:54:32.085Z,7.37
2022-10-12T18:57:48.759Z,7.35
2022-10-12T19:01:10.458Z,7.28
2022-10-12T19:04:26.836Z,7.22
2022-10-12T19:07:45.012Z,7.17
2022-10-12T19:11:01.318Z,7.10
2022-10-12T19:14:21.046Z,7.03
2022-10-12T19:17:39.730Z,7.00
2022-10-12T19:20:56.026Z,6.89
2022-10-12T19:24:17.855Z,6.83
2022-10-12T19:27:36.827Z,6.77
2022-10-12T19:31:06.888Z,6.79
2022-10-12T19:34:27.389Z,6.72
2022-10-12T19:37:46.541Z,6.66
2022-10-12T19:41:03.394Z,6.58
2022-10-12T19:44:20.890Z,6.51
2022-10-12T19:47:37.379Z,6.44
2022-10-12T19:50:54.644Z,6.40
2022-10-12T19:54:12.419Z,6.35
2022-10-12T19:57:29.365Z,6.33
2022-10-12T20:00:47.627Z,6.30
2022-10-12T20:04:06.231Z,6.22
2022-10-12T20:07:24.830Z,6.21
2022-10-12T20:10:41.125Z,6.19
2022-10-12T20:13:58.638Z,6.08
2022-10-12T20:17:15.476Z,6.03
2022-10-12T20:20:31.888Z,6.02
2022-10-12T20:23:49.913Z,5.96
2022-10-12T20:27:06.976Z,5.97
2022-10-12T20:30:24.841Z,5.96
2022-10-12T20:33:43.347Z,5.93
2022-10-12T20:36:59.702Z,5.91
2022-10-12T20:40:19.320Z,5.91
2022-10-12T20:43:33.118Z,5.89
2022-10-12T20:46:51.056Z,5.91
2022-10-12T20:50:08.012Z,5.88
2022-10-12T20:53:25.884Z,5.86
2022-10-12T20:56:44.180Z,5.90
2022-10-12T21:00:01.140Z,5.95
2022-10-12T21:03:18.343Z,5.99
2022-10-12T21:06:34.698Z,5.94
2022-10-12T21:09:51.878Z,5.97
2022-10-12T21:13:08.188Z,5.96
2022-10-12T21:16:25.420Z,5.89
2022-10-12T21:19:41.735Z,5.88
2022-10-12T21:22:57.884Z,5.88
2022-10-12T21:26:21.813Z,5.91
2022-10-12T21:29:38.033Z,5.93
2022-10-12T21:32:54.131Z,5.97
2022-10-12T21:36:21.025Z,6.04
2022-10-12T21:39:37.775Z,6.21
2022-10-12T21:42:54.712Z,6.26
2022-10-12T21:46:16.815Z,6.21
2022-10-12T21:49:33.757Z,6.27
2022-10-12T21:52:50.422Z,6.35
2022-10-12T21:56:07.470Z,6.26
2022-10-12T21:59:23.577Z,6.23
2022-10-12T22:02:41.095Z,6.20
2022-10-12T22:05:57.522Z,6.23
2022-10-12T22:09:19.973Z,6.22
2022-10-12T22:12:36.863Z,6.04
2022-10-12T22:15:53.615Z,5.94
2022-10-12T22:19:15.127Z,5.84
2022-10-12T22:22:32.033Z,5.70
2022-10-12T22:25:48.654Z,5.63
2022-10-12T22:29:09.491Z,5.57
2022-10-12T22:32:25.684Z,5.45
2022-10-12T22:35:43.930Z,5.42
2022-10-12T22:39:00.208Z,5.38
2022-10-12T22:42:16.737Z,5.33
2022-10-12T22:45:33.212Z,5.33
2022-10-12T22:48:50.655Z,5.29
2022-10-12T22:52:06.925Z,5.25
2022-10-12T22:55:23.734Z,5.20
2022-10-12T22:58:41.139Z,5.13
2022-10-12T23:01:57.275Z,5.07
2022-10-12T23:05:14.647Z,5.04
2022-10-12T23:08:31.067Z,5.02
2022-10-12T23:11:49.265Z,4.97
2022-10-12T23:15:06.429Z,5.01
2022-10-12T23:18:22.868Z,5.17
2022-10-12T23:21:40.605Z,5.31
2022-10-12T23:24:57.286Z,5.43
2022-10-12T23:28:14.448Z,5.48
2022-10-12T23:31:36.497Z,5.43
2022-10-12T23:34:52.955Z,5.53
2022-10-12T23:38:08.958Z,5.56
2022-10-12T23:41:25.332Z,5.57
2022-10-12T23:44:41.652Z,5.50
2022-10-12T23:47:57.886Z,5.41
2022-10-12T23:51:15.766Z,5.33
2022-10-12T23:54:35.163Z,5.29
2022-10-12T23:57:51.206Z,5.37
